Latest Coastal Weather Observations for Robe Airport

IDV60701

Issued at 7:31 am EST Sunday 22 September 2019 (issued every 10 minutes, with the page automatically refreshed every 10 minutes)

About coastal observations | Map of coastal stations | Coastal observations for VIC | Marine services | Other Formats
Station Details ID: 026105 Name: ROBE AIRFIELD Lat: -37.18 Lon: 139.81 Height: 3.0 m
Data from the previous 72 hours. | See also: Recent months at Robe Airport
Date/Time
EST
Wind Sea
Height
m
Swell Vis
km
Cloud Weather Temp
°C
Press
hPa
Rain since
9am
mm
Dir  Spd
kts
Gust
kts
Height
m
Period
s
Dir
22/07:30am WNW 7 11 - - - - - - - 10.7 1021.6 3.6
22/07:00am WNW 5 8 - - - - - - - 9.6 1021.5 3.6
22/06:30am W 4 6 - - - - - - - 9.1 1021.1 3.6
22/06:00am W 7 11 - - - - - - - 10.0 1020.9 3.6
22/05:30am WNW 7 11 - - - - - - - 9.8 1020.6 3.6
22/05:00am W 3 7 - - - - - - - 9.3 1020.2 3.6
22/04:30am W 6 10 - - - - - - - 9.4 1020.1 3.6
22/04:00am W 6 10 - - - - - - - 9.2 1020.1 3.6
22/03:30am W 6 9 - - - - - - - 9.3 1020.1 3.6
22/03:00am W 6 11 - - - - - - - 9.2 1020.3 3.6
22/02:30am W 7 11 - - - - - - - 9.4 1020.3 3.6
22/02:00am W 7 15 - - - - - - - 9.9 1020.5 3.6
22/01:30am WNW 8 12 - - - - - - - 9.4 1020.6 3.6
22/01:00am W 5 8 - - - - - - - 8.9 1020.6 3.6
22/12:30am W 6 9 - - - - - - - 8.8 1020.7 3.6
22/12:00am W 6 11 - - - - - - - 8.7 1020.6 3.6
 
Date/Time
EST
Wind Sea
Height
m
Swell Vis
km
Cloud Weather Temp
°C
Press
hPa
Rain since
9am
mm
Dir  Spd
kts
Gust
kts
Height
m
Period
s
Dir
21/11:30pm WSW 4 7 - - - - - - - 8.5 1020.6 3.6
21/11:00pm W 6 13 - - - - - - - 9.5 1020.6 3.6
21/10:30pm W 4 7 - - - - - - - 9.0 1020.6 3.6
21/10:00pm WNW 7 14 - - - - - - - 9.6 1020.6 3.6
21/09:30pm W 3 5 - - - - - - - 9.1 1020.5 3.6
21/09:00pm WNW 5 7 - - - - - - - 8.7 1020.4 3.6
21/08:30pm WSW 7 12 - - - - - - - 9.4 1020.2 3.6
21/08:00pm W 5 11 - - - - - - - 9.6 1019.9 3.6
21/07:30pm W 4 7 - - - - - - - 9.7 1019.6 3.6
21/07:00pm W 5 7 - - - - - - - 9.9 1019.2 3.6
21/06:30pm W 5 9 - - - - - - - 10.1 1018.8 3.6
21/06:00pm WSW 7 14 - - - - - - - 11.3 1018.4 3.6
21/05:30pm WSW 8 13 - - - - - - - 11.7 1018.0 3.6
21/05:00pm WSW 9 15 - - - - - - - 12.0 1017.7 3.6
21/04:30pm WSW 10 15 - - - - - - - 12.4 1017.4 3.6
21/04:00pm WSW 10 16 - - - - - - - 12.6 1017.0 3.6
21/03:30pm SW 11 16 - - - - - - - 12.5 1016.6 3.6
21/03:00pm SW 13 19 - - - - - - - 12.6 1016.2 3.6
21/02:30pm SW 14 22 - - - - - - - 12.7 1015.9 3.6
21/02:00pm SW 14 20 - - - - - - - 12.9 1015.4 3.6
21/01:30pm SW 13 20 - - - - - - - 12.6 1015.0 3.6
21/01:00pm SW 13 18 - - - - - - - 11.3 1014.8 3.6
21/12:30pm SW 8 13 - - - - - - Rain 10.0 1014.5 3.4
21/12:00pm SW 9 16 - - - - - - - 9.7 1014.2 2.4
21/11:30am SW 11 19 - - - - - - - 10.4 1013.8 0.2
21/11:00am SW 9 14 - - - - - - - 12.5 1013.1 0.0
21/10:30am SW 11 17 - - - - - - - 11.7 1012.7 0.0
21/10:00am SW 9 17 - - - - - - - 11.9 1012.6 0.0
21/09:30am SW 10 17 - - - - - - - 12.0 1012.2 13.8
21/09:00am SW 10 14 - - - - - - - 11.5 1011.8 13.8
21/08:30am SW 10 15 - - - - - - - 11.1 1011.6 13.8
21/08:00am SSW 9 14 - - - - - - - 10.2 1011.2 13.8
21/07:30am SW 9 16 - - - - - - - 10.1 1010.8 13.6
21/07:00am SW 11 16 - - - - - - - 9.8 1010.3 13.4
21/06:30am SW 10 16 - - - - - - Recent precip. 9.9 1010.1 13.4
21/06:00am SW 11 16 - - - - - - - 10.0 1009.6 13.2
21/05:30am SW 12 18 - - - - - - - 9.8 1009.6 13.0
21/05:00am SW 13 20 - - - - - - - 9.7 1009.0 12.0
21/04:30am SW 17 28 - - - - - - - 9.5 1008.7 11.6
21/04:28am SW 17 28 - - - - - - - 9.7 1008.4 11.6
21/04:21am WSW 12 24 - - - - - - - 10.0 1008.4 10.8
21/04:00am CALM 0 0 - - - - - - - 10.2 1008.5 9.6
21/03:30am CALM 0 0 - - - - - - Recent precip. 10.4 1008.8 9.6
21/03:00am ESE 3 5 - - - - - - - 10.7 1008.7 9.6
21/02:30am E 5 8 - - - - - - - 11.0 1009.5 9.2
21/02:00am ENE 5 7 - - - - - - - 11.3 1009.8 7.8
21/01:30am ESE 3 4 - - - - - - - 11.4 1010.8 5.6
21/01:00am SE 3 4 - - - - - - - 11.5 1010.8 4.8
21/12:30am SE 1 2 - - - - - - Rain 11.5 1011.0 4.0
21/12:00am SE 3 4 - - - - - - - 11.6 1011.1 3.2
 
Date/Time
EST
Wind Sea
Height
m
Swell Vis
km
Cloud Weather Temp
°C
Press
hPa
Rain since
9am
mm
Dir  Spd
kts
Gust
kts
Height
m
Period
s
Dir
20/11:30pm SE 2 4 - - - - - - - 11.8 1011.9 2.0
20/11:00pm S 5 7 - - - - - - - 12.0 1011.9 1.2
20/10:30pm SSW 6 8 - - - - - - - 12.1 1012.0 0.4
20/10:00pm SSW 7 10 - - - - - - - 12.3 1012.6 0.0
20/09:30pm SSW 7 11 - - - - - - - 12.5 1012.9 0.0
20/09:00pm SW 6 10 - - - - - - - 12.9 1012.6 0.0
20/08:30pm SW 7 10 - - - - - - - 13.2 1012.9 0.0
20/08:00pm WSW 6 9 - - - - - - - 12.9 1012.3 0.0
20/07:30pm WSW 7 12 - - - - - - - 13.3 1012.2 0.0
20/07:00pm WSW 5 8 - - - - - - - 13.7 1012.2 0.0
20/06:30pm WSW 4 7 - - - - - - - 14.0 1012.5 0.0
20/06:00pm W 4 7 - - - - - - - 14.6 1012.3 0.0
20/05:30pm WNW 6 9 - - - - - - - 14.8 1012.6 0.0
20/05:00pm W 6 9 - - - - - - - 15.1 1011.9 0.0
20/04:30pm NW 10 13 - - - - - - - 15.5 1012.5 0.0
20/04:00pm NW 10 14 - - - - - - - 16.1 1012.1 0.0
20/03:30pm NW 2 3 - - - - - - - 17.0 1010.5 0.0
20/03:00pm NW 6 8 - - - - - - - 17.1 1012.1 0.0
20/02:30pm NW 7 11 - - - - - - - 17.2 1011.5 0.0
20/02:00pm NW 5 7 - - - - - - - 17.5 1011.5 0.0
20/01:30pm NNW 7 10 - - - - - - - 17.6 1012.4 0.0
20/01:00pm NNW 8 12 - - - - - - - 17.9 1012.4 0.0
20/12:30pm NNW 9 12 - - - - - - - 17.6 1012.2 0.0
20/12:00pm NNW 8 13 - - - - - - - 18.1 1012.1 0.0
20/11:30am N 8 11 - - - - - - - 17.8 1013.1 0.0
20/11:00am NNW 6 11 - - - - - - - 17.5 1013.2 0.0
20/10:30am N 7 9 - - - - - - - 16.9 1013.5 0.0
20/10:00am NNW 5 7 - - - - - - - 16.3 1013.5 0.0
20/09:30am NNW 4 7 - - - - - - - 16.0 1013.5 0.0
20/09:00am NNW 5 6 - - - - - - - 15.9 1013.5 0.0
20/08:30am NNW 5 7 - - - - - - - 15.3 1013.4 0.0
20/08:00am NNW 4 5 - - - - - - - 14.9 1012.8 0.0
20/07:30am NNW 3 4 - - - - - - - 13.4 1012.7 0.0
20/07:00am NNW 2 4 - - - - - - - 13.2 1012.0 0.0
20/06:30am NNW 3 4 - - - - - - - 13.4 1011.7 0.0
20/06:00am WNW 3 5 - - - - - - - 14.8 1011.1 0.0
20/05:30am W 5 9 - - - - - - - 16.4 1010.4 0.0
20/05:00am NW 6 8 - - - - - - - 15.7 1010.5 0.0
20/04:30am NW 7 13 - - - - - - - 16.4 1010.1 0.0
20/04:00am NW 7 12 - - - - - - - 17.0 1009.8 0.0
20/03:30am N 9 13 - - - - - - - 17.2 1008.6 0.0
20/03:00am NNW 8 10 - - - - - - - 17.4 1008.6 0.0
20/02:30am N 10 17 - - - - - - - 19.5 1008.5 0.0
20/02:00am N 11 16 - - - - - - - 20.4 1007.6 0.0
20/01:30am NNE 15 22 - - - - - - - 20.8 1007.9 0.0
20/01:00am NNE 15 22 - - - - - - - 20.6 1008.0 0.0
20/12:30am NNE 14 23 - - - - - - - 20.3 1007.9 0.0
20/12:00am NNE 12 16 - - - - - - - 19.4 1007.9 0.0
 
Date/Time
EST
Wind Sea
Height
m
Swell Vis
km
Cloud Weather Temp
°C
Press
hPa
Rain since
9am
mm
Dir  Spd
kts
Gust
kts
Height
m
Period
s
Dir
19/11:30pm NE 10 13 - - - - - - - 17.9 1008.0 0.0
19/11:00pm NE 10 13 - - - - - - - 18.0 1008.1 0.0
19/10:30pm NE 9 13 - - - - - - - 17.6 1007.9 0.0
19/10:00pm NE 8 11 - - - - - - - 17.4 1008.0 0.0
19/09:30pm NE 10 13 - - - - - - - 18.0 1007.9 0.0
19/09:00pm NNE 11 15 - - - - - - - 18.7 1008.1 0.0
19/08:30pm NE 12 15 - - - - - - - 18.8 1007.7 0.0
19/08:00pm NE 10 13 - - - - - - - 18.9 1007.7 0.0
19/07:30pm NNE 10 17 - - - - - - - 19.7 1007.6 0.0
19/07:00pm NE 10 14 - - - - - - - 20.4 1007.3 0.0
19/06:30pm NNE 12 16 - - - - - - - 21.5 1007.4 0.0
19/06:00pm NNE 13 18 - - - - - - - 22.5 1007.3 0.0
19/05:30pm NNE 14 19 - - - - - - - 23.6 1007.3 0.0
19/05:00pm NNE 14 20 - - - - - - - 24.1 1007.2 0.0
19/04:30pm NNE 16 21 - - - - - - - 24.3 1007.4 0.0
19/04:00pm NNE 17 24 - - - - - - - 24.4 1007.6 0.0
19/03:40pm NNE 19 29 - - - - - - - 24.4 1007.7 0.0
19/03:30pm NNE 20 26 - - - - - - - 24.9 1007.7 0.0
19/03:00pm N 19 27 - - - - - - - 24.0 1008.0 0.0
19/02:30pm NNE 22 34 - - - - - - - 23.8 1008.2 0.0
19/02:29pm NNE 21 33 - - - - - - - 23.8 1008.2 0.0
19/02:00pm NNE 22 31 - - - - - - - 23.4 1008.5 0.0
19/01:41pm NNE 20 30 - - - - - - - 22.4 1009.1 0.0
19/01:30pm NNE 22 31 - - - - - - - 22.1 1009.2 0.0
19/01:00pm NNE 24 36 - - - - - - - 21.6 1009.6 0.0
19/12:37pm NNE 19 29 - - - - - - - 21.7 1010.0 0.0
19/12:30pm NNE 21 30 - - - - - - - 20.8 1010.3 0.0
19/12:00pm NNE 22 33 - - - - - - - 21.0 1010.1 0.0
19/11:39am NNE 21 31 - - - - - - - 20.1 1009.9 0.0
19/11:30am NNE 19 26 - - - - - - - 19.6 1010.2 0.0
19/11:22am NNE 21 31 - - - - - - - 18.8 1010.7 0.0
19/11:00am NNE 22 29 - - - - - - - 18.8 1011.4 0.0
19/10:30am NNE 24 35 - - - - - - - 17.7 1012.0 0.0
19/10:13am NNE 21 31 - - - - - - - 17.5 1012.5 0.0
19/10:00am NNE 23 32 - - - - - - - 17.4 1012.4 0.0
19/09:41am NNE 19 30 - - - - - - - 16.8 1012.6 0.0
19/09:30am NNE 19 28 - - - - - - - 16.9 1013.1 0.0
19/09:28am NNE 18 28 - - - - - - - 17.0 1013.0 0.0
19/09:00am NNE 18 25 - - - - - - - 16.3 1013.3 0.0
19/08:30am NNE 13 19 - - - - - - - 14.0 1013.8 0.0

Other formats

Comma delimited format used in spreadsheet applications
http://www.bom.gov.au/fwo/IDV60701/IDV60701.95816.axf

JavaScript Object Notation format (JSON) in row-major order
http://www.bom.gov.au/fwo/IDV60701/IDV60701.95816.json

Data quality

Most of these data are generated automatically and are frequently updated. Quality checks on data are not normally performed. It is possible for incorrect values to appear. Refer to information at About Latest Weather Observations and please check the disclaimer before using these data.